Time;durP1;ratioP1;P1;durP2;ratioP2;P2;SDS_P1;SDS_P2;PMS_P1;PMS_P2;Temp;Humidity;BMP_temperature;BMP_pressure;BME280_temperature;BME280_humidity;BME280_pressure;Samples;Min_cycle;Max_cycle;Signal;HPM_P1;HPM_P2
2023/06/05 00:00:14;;;;;;;9.05;6.57;;;10.40;99.90;;;;;;5109466;27;20034;-83
2023/06/05 00:02:40;;;;;;;13.48;7.82;;;10.40;99.90;;;;;;5087773;27;20409;-82
2023/06/05 00:05:08;;;;;;;10.73;6.75;;;10.40;99.90;;;;;;5089148;27;20036;-82
2023/06/05 00:07:35;;;;;;;9.60;6.65;;;10.40;99.90;;;;;;5122068;27;20102;-82
2023/06/05 00:10:00;;;;;;;11.13;6.88;;;10.40;99.90;;;;;;5109017;27;20050;-83
2023/06/05 00:12:26;;;;;;;13.05;7.00;;;10.30;99.90;;;;;;5136202;27;20039;-83
2023/06/05 00:14:52;;;;;;;9.65;7.45;;;10.30;99.90;;;;;;5106247;27;20030;-83
2023/06/05 00:17:19;;;;;;;9.18;6.70;;;10.40;99.90;;;;;;5141830;27;20074;-83
2023/06/05 00:19:44;;;;;;;8.88;6.55;;;10.40;99.90;;;;;;5118686;27;20172;-83
2023/06/05 00:22:13;;;;;;;10.52;6.78;;;10.40;99.90;;;;;;5089309;27;20419;-82
2023/06/05 00:24:39;;;;;;;9.90;7.10;;;10.40;99.90;;;;;;5121445;27;20443;-83
2023/06/05 00:27:04;;;;;;;9.88;7.00;;;10.40;99.90;;;;;;5118710;27;20211;-83
2023/06/05 00:29:30;;;;;;;9.73;6.55;;;10.40;99.90;;;;;;5085395;27;20577;-82
2023/06/05 00:31:56;;;;;;;8.93;6.65;;;10.30;99.90;;;;;;5119542;27;20134;-82
2023/06/05 00:34:21;;;;;;;12.35;7.15;;;10.30;99.90;;;;;;5125144;27;20127;-83
2023/06/05 00:36:50;;;;;;;12.18;7.90;;;10.30;99.90;;;;;;5116870;27;20035;-83
2023/06/05 00:39:19;;;;;;;11.50;7.25;;;10.20;99.90;;;;;;5122662;27;20459;-83
2023/06/05 00:41:45;;;;;;;10.25;7.10;;;10.20;99.90;;;;;;5090125;27;20050;-83
2023/06/05 00:44:11;;;;;;;14.23;7.47;;;10.10;99.90;;;;;;5111167;27;20038;-83
2023/06/05 00:46:38;;;;;;;9.60;6.93;;;10.10;99.90;;;;;;5122515;27;20039;-83
2023/06/05 00:49:05;;;;;;;9.80;7.32;;;10.10;99.90;;;;;;5122086;27;20401;-82
2023/06/05 00:51:31;;;;;;;11.02;7.32;;;10.10;99.90;;;;;;5092367;27;20039;-82
2023/06/05 00:53:57;;;;;;;8.90;6.85;;;10.10;99.90;;;;;;5109089;27;20039;-82
2023/06/05 00:56:23;;;;;;;11.10;6.68;;;10.10;99.90;;;;;;5142357;27;20530;-83
2023/06/05 00:58:48;;;;;;;8.50;6.88;;;10.10;99.90;;;;;;5087531;27;20035;-83
2023/06/05 01:01:14;;;;;;;9.55;7.20;;;10.00;99.90;;;;;;5139160;27;20076;-83
2023/06/05 01:03:41;;;;;;;9.45;6.97;;;10.00;99.90;;;;;;5104930;27;20036;-83
2023/06/05 01:06:07;;;;;;;10.50;6.82;;;9.90;99.90;;;;;;5109853;27;20047;-83
2023/06/05 01:08:39;;;;;;;10.27;7.50;;;10.00;99.90;;;;;;5119964;27;20425;-83
2023/06/05 01:11:33;;;;;;;9.10;7.20;;;10.00;99.90;;;;;;5120030;27;20046;-83
2023/06/05 01:14:07;;;;;;;12.43;7.95;;;10.00;99.90;;;;;;5079970;27;20329;-83
2023/06/05 01:16:34;;;;;;;13.57;7.63;;;9.90;99.90;;;;;;5117835;27;20039;-83
2023/06/05 01:19:03;;;;;;;10.25;7.53;;;9.80;99.90;;;;;;5103169;27;20141;-83
2023/06/05 01:21:32;;;;;;;10.75;6.82;;;9.80;99.90;;;;;;5119457;27;20122;-83
2023/06/05 01:23:59;;;;;;;9.38;7.43;;;9.80;99.90;;;;;;5092023;27;20232;-83
2023/06/05 01:26:40;;;;;;;10.93;7.28;;;9.80;99.90;;;;;;5105273;28;20497;-83
2023/06/05 01:29:08;;;;;;;10.35;7.80;;;9.80;99.90;;;;;;5104994;27;20042;-82
2023/06/05 01:31:36;;;;;;;10.68;7.90;;;9.80;99.90;;;;;;5139056;27;20046;-83
2023/06/05 01:34:07;;;;;;;10.82;7.82;;;9.70;99.90;;;;;;5108230;27;20389;-83
2023/06/05 01:36:33;;;;;;;11.07;7.28;;;9.70;99.90;;;;;;5110821;27;20414;-83
2023/06/05 01:39:04;;;;;;;12.57;7.85;;;9.60;99.90;;;;;;5118345;27;20464;-83
2023/06/05 01:41:30;;;;;;;10.57;8.00;;;9.70;99.90;;;;;;5095815;27;20034;-83
2023/06/05 01:43:56;;;;;;;10.55;8.02;;;9.70;99.90;;;;;;5091092;27;20035;-83
2023/06/05 01:46:23;;;;;;;13.38;7.93;;;9.70;99.90;;;;;;5144549;27;20035;-83
2023/06/05 01:48:51;;;;;;;11.52;8.23;;;9.60;99.90;;;;;;5106170;27;20162;-83
2023/06/05 01:51:16;;;;;;;9.18;7.60;;;9.60;99.90;;;;;;5148493;27;20420;-83
2023/06/05 01:53:42;;;;;;;11.48;7.70;;;9.70;99.90;;;;;;5124965;27;20039;-83
2023/06/05 01:56:08;;;;;;;16.08;8.43;;;9.70;99.90;;;;;;5093043;27;20035;-83
2023/06/05 01:58:35;;;;;;;12.27;7.53;;;9.70;99.90;;;;;;5126428;27;20091;-83
2023/06/05 02:01:03;;;;;;;12.93;7.82;;;9.70;99.90;;;;;;5095541;27;20046;-83
2023/06/05 02:03:32;;;;;;;13.93;8.15;;;9.80;99.90;;;;;;5103415;27;20492;-83
2023/06/05 02:05:57;;;;;;;9.93;7.70;;;9.80;99.90;;;;;;5093690;27;20313;-83
2023/06/05 02:08:24;;;;;;;10.85;8.07;;;9.80;99.90;;;;;;5128558;27;20104;-83
2023/06/05 02:10:52;;;;;;;11.38;7.70;;;9.80;99.90;;;;;;5130335;27;20046;-84
2023/06/05 02:13:23;;;;;;;12.07;7.82;;;9.90;99.90;;;;;;5128746;27;20050;-83
2023/06/05 02:15:54;;;;;;;9.63;8.02;;;9.90;99.90;;;;;;5095701;27;20560;-83
2023/06/05 02:18:24;;;;;;;10.57;7.57;;;9.90;99.90;;;;;;5083935;27;20058;-82
2023/06/05 02:20:54;;;;;;;11.38;7.70;;;9.90;99.90;;;;;;5142161;27;20046;-84
2023/06/05 02:23:20;;;;;;;10.30;7.85;;;9.80;99.90;;;;;;5126513;27;20085;-83
2023/06/05 02:25:46;;;;;;;11.10;7.82;;;9.80;99.90;;;;;;5119878;27;20028;-83
2023/06/05 02:28:11;;;;;;;10.85;7.68;;;9.80;99.90;;;;;;5110837;27;20031;-84
2023/06/05 02:30:37;;;;;;;9.35;7.82;;;9.80;99.90;;;;;;5120873;27;20035;-83
2023/06/05 02:33:03;;;;;;;12.63;8.02;;;9.90;99.90;;;;;;5087476;27;20073;-84
2023/06/05 02:35:29;;;;;;;9.77;7.70;;;9.90;99.90;;;;;;5110837;27;20046;-84
2023/06/05 02:37:56;;;;;;;10.82;7.53;;;9.90;99.90;;;;;;5093595;27;20045;-84
2023/06/05 02:40:22;;;;;;;10.23;7.10;;;9.80;99.90;;;;;;5115957;27;20054;-83
2023/06/05 02:42:48;;;;;;;10.80;7.28;;;9.80;99.90;;;;;;5129728;27;20031;-83
2023/06/05 02:45:14;;;;;;;9.60;7.38;;;9.90;99.90;;;;;;5113803;27;20062;-83
2023/06/05 02:47:40;;;;;;;11.82;8.10;;;9.90;99.90;;;;;;5117339;27;20039;-83
2023/06/05 02:50:07;;;;;;;10.48;7.30;;;9.90;99.90;;;;;;5111466;27;20031;-83
2023/06/05 02:52:35;;;;;;;10.48;7.47;;;9.90;99.90;;;;;;5128050;27;20380;-84
2023/06/05 02:55:02;;;;;;;9.65;7.10;;;9.90;99.90;;;;;;5125774;27;20050;-83
2023/06/05 02:57:27;;;;;;;11.23;8.32;;;9.90;99.90;;;;;;5094206;27;20441;-83
2023/06/05 02:59:55;;;;;;;11.38;8.05;;;9.90;99.90;;;;;;5095335;27;20055;-83
2023/06/05 03:02:21;;;;;;;11.27;7.78;;;10.00;99.90;;;;;;5136016;27;20031;-83
2023/06/05 03:04:53;;;;;;;9.55;7.45;;;10.00;99.90;;;;;;5130234;27;20095;-83
2023/06/05 03:07:19;;;;;;;10.60;7.50;;;10.00;99.90;;;;;;5087412;27;20442;-83
2023/06/05 03:09:45;;;;;;;10.82;7.43;;;10.00;99.90;;;;;;5093633;28;20035;-83
2023/06/05 03:12:10;;;;;;;11.18;7.63;;;10.10;99.90;;;;;;5115236;27;20378;-83
2023/06/05 03:14:36;;;;;;;11.82;7.28;;;10.10;99.90;;;;;;5112604;27;20068;-83
2023/06/05 03:17:03;;;;;;;11.40;7.90;;;10.10;99.90;;;;;;5125369;27;20039;-83
2023/06/05 03:19:28;;;;;;;11.32;6.75;;;10.20;99.90;;;;;;5138588;27;20039;-83
2023/06/05 03:21:58;;;;;;;11.50;7.13;;;10.20;99.90;;;;;;5134256;27;20038;-84
2023/06/05 03:24:24;;;;;;;10.70;7.10;;;10.20;99.90;;;;;;5127536;27;20121;-83
2023/06/05 03:26:50;;;;;;;12.40;7.38;;;10.20;99.90;;;;;;5097926;27;20046;-83
2023/06/05 03:29:15;;;;;;;12.45;7.65;;;10.20;99.90;;;;;;5139104;27;20595;-83
2023/06/05 03:31:42;;;;;;;10.85;7.55;;;10.30;99.90;;;;;;5116588;27;20053;-84
2023/06/05 03:34:08;;;;;;;12.55;7.88;;;10.30;99.90;;;;;;5105619;27;20554;-84
2023/06/05 03:36:34;;;;;;;12.13;7.05;;;10.40;99.90;;;;;;5119918;27;20023;-84
2023/06/05 03:39:01;;;;;;;8.90;6.53;;;10.50;99.90;;;;;;5126986;27;20062;-83
2023/06/05 03:41:26;;;;;;;9.48;6.82;;;10.50;99.90;;;;;;5120868;27;20043;-84
2023/06/05 03:43:53;;;;;;;12.13;7.32;;;10.60;99.90;;;;;;5127400;27;20031;-83
2023/06/05 03:46:19;;;;;;;10.60;6.68;;;10.60;99.90;;;;;;5094253;27;20466;-83
2023/06/05 03:48:48;;;;;;;11.70;6.95;;;10.70;99.90;;;;;;5138548;27;20030;-84
2023/06/05 03:51:18;;;;;;;9.57;6.65;;;10.70;99.90;;;;;;5081686;27;20038;-83
2023/06/05 03:53:54;;;;;;;9.73;6.43;;;10.80;99.90;;;;;;5110020;27;20043;-84
2023/06/05 03:56:21;;;;;;;11.00;7.47;;;10.80;99.90;;;;;;5117127;27;20627;-83
2023/06/05 03:58:48;;;;;;;10.35;7.03;;;10.90;99.90;;;;;;5125962;27;20047;-84
2023/06/05 04:01:14;;;;;;;11.60;7.28;;;10.90;99.90;;;;;;5119702;27;20035;-83
2023/06/05 04:03:40;;;;;;;9.13;7.00;;;10.90;99.90;;;;;;5115335;27;20069;-83
2023/06/05 04:06:05;;;;;;;9.95;7.22;;;10.90;99.90;;;;;;5142377;27;20043;-83
2023/06/05 04:08:32;;;;;;;11.68;7.22;;;10.90;99.90;;;;;;5102882;27;20064;-83
2023/06/05 04:10:58;;;;;;;9.52;7.13;;;10.90;99.90;;;;;;5091130;27;20050;-84
2023/06/05 04:13:27;;;;;;;10.30;6.93;;;11.00;99.90;;;;;;5117106;27;20042;-83
2023/06/05 04:15:52;;;;;;;9.90;6.97;;;11.10;99.90;;;;;;5102018;27;20415;-84
2023/06/05 04:18:18;;;;;;;11.90;7.28;;;11.10;99.90;;;;;;5118136;27;20474;-83
2023/06/05 04:20:44;;;;;;;12.30;8.02;;;11.10;99.90;;;;;;5140282;27;20042;-83
2023/06/05 04:23:09;;;;;;;12.52;8.10;;;11.20;99.90;;;;;;5106110;27;20043;-83
2023/06/05 04:25:35;;;;;;;11.10;8.15;;;11.30;99.90;;;;;;5105034;27;20082;-83
2023/06/05 04:28:00;;;;;;;9.88;8.00;;;11.30;99.90;;;;;;5106371;27;20078;-83
2023/06/05 04:30:29;;;;;;;12.48;8.80;;;11.40;99.90;;;;;;5095063;27;20038;-83
2023/06/05 04:32:55;;;;;;;11.82;8.07;;;11.40;99.90;;;;;;5136797;27;20210;-83
2023/06/05 04:35:22;;;;;;;13.05;9.50;;;11.40;99.90;;;;;;5107160;27;20039;-83
2023/06/05 04:37:48;;;;;;;13.10;9.38;;;11.50;99.90;;;;;;5088830;27;20038;-83
2023/06/05 04:40:15;;;;;;;12.45;8.88;;;11.60;99.90;;;;;;5106188;27;20590;-83
2023/06/05 04:42:40;;;;;;;12.25;8.73;;;11.60;99.90;;;;;;5110344;27;20041;-82
2023/06/05 04:45:10;;;;;;;13.38;9.07;;;11.60;99.90;;;;;;5109195;27;20307;-83
2023/06/05 04:47:36;;;;;;;13.80;9.75;;;11.60;99.90;;;;;;5118818;27;20180;-83
2023/06/05 04:50:04;;;;;;;14.38;9.43;;;11.80;99.90;;;;;;5107953;27;20393;-83
2023/06/05 04:52:31;;;;;;;13.05;9.80;;;11.80;99.90;;;;;;5105560;27;20035;-81
2023/06/05 04:55:01;;;;;;;13.10;9.35;;;11.90;99.90;;;;;;5122062;27;20096;-83
2023/06/05 04:57:27;;;;;;;13.55;8.57;;;11.80;99.90;;;;;;5124593;27;20043;-82
2023/06/05 04:59:54;;;;;;;12.40;8.85;;;11.70;99.90;;;;;;5122592;27;20049;-83
2023/06/05 05:02:20;;;;;;;11.73;7.63;;;11.80;99.90;;;;;;5108369;27;20240;-83
2023/06/05 05:04:46;;;;;;;11.18;8.52;;;11.70;99.90;;;;;;5101849;27;20113;-82
2023/06/05 05:07:15;;;;;;;12.38;8.07;;;12.00;99.90;;;;;;5108441;27;20906;-82
2023/06/05 05:09:41;;;;;;;11.68;7.95;;;12.00;99.90;;;;;;5125184;27;20047;-82
2023/06/05 05:12:07;;;;;;;10.73;7.20;;;12.00;99.90;;;;;;5083121;27;20775;-82
2023/06/05 05:14:36;;;;;;;9.63;6.70;;;12.00;99.90;;;;;;5088328;27;20043;-82
2023/06/05 05:17:05;;;;;;;9.88;6.45;;;12.10;99.90;;;;;;5092701;27;20035;-82
2023/06/05 05:19:40;;;;;;;9.07;6.47;;;12.20;99.90;;;;;;5135186;27;20349;-82
2023/06/05 05:22:06;;;;;;;10.50;6.00;;;12.40;99.90;;;;;;5096182;27;20038;-82
2023/06/05 05:24:32;;;;;;;10.25;6.28;;;12.40;99.90;;;;;;5105925;27;20366;-82
2023/06/05 05:26:57;;;;;;;8.50;5.90;;;12.50;99.90;;;;;;5110825;27;20038;-83
2023/06/05 05:29:23;;;;;;;7.43;5.22;;;12.60;99.90;;;;;;5140366;27;20450;-82
2023/06/05 05:31:50;;;;;;;5.75;4.78;;;12.60;99.90;;;;;;5093540;27;20042;-82
2023/06/05 05:34:16;;;;;;;7.38;4.88;;;12.60;99.90;;;;;;5116792;27;20644;-82
2023/06/05 05:36:42;;;;;;;7.88;5.28;;;12.90;99.90;;;;;;5120328;27;20046;-82
2023/06/05 05:39:08;;;;;;;6.15;4.63;;;13.10;99.90;;;;;;5102672;27;20055;-82
2023/06/05 05:41:34;;;;;;;6.47;4.63;;;13.10;99.90;;;;;;5125130;27;20119;-83
2023/06/05 05:44:00;;;;;;;5.55;3.97;;;13.10;99.90;;;;;;5092165;27;20413;-83
2023/06/05 05:46:25;;;;;;;5.80;4.25;;;13.40;99.90;;;;;;5110184;27;20023;-82
2023/06/05 05:48:51;;;;;;;4.72;4.05;;;13.20;99.90;;;;;;5087460;27;20042;-83
2023/06/05 05:51:21;;;;;;;6.20;4.07;;;13.50;99.90;;;;;;5110550;27;20034;-82
2023/06/05 05:53:46;;;;;;;6.50;4.55;;;13.50;99.90;;;;;;5123396;27;20047;-82
2023/06/05 05:56:12;;;;;;;7.38;4.57;;;13.70;99.90;;;;;;5108992;27;20521;-82
2023/06/05 05:58:38;;;;;;;5.55;4.30;;;13.60;99.90;;;;;;5122159;27;20039;-83
2023/06/05 06:01:04;;;;;;;5.05;3.97;;;13.70;99.90;;;;;;5123225;27;20455;-82
2023/06/05 06:03:29;;;;;;;6.78;4.47;;;13.40;99.90;;;;;;5133351;27;20229;-82
2023/06/05 06:06:03;;;;;;;6.03;4.45;;;13.60;99.90;;;;;;5110199;27;20053;-82
2023/06/05 06:08:29;;;;;;;6.40;3.90;;;13.60;99.90;;;;;;5120122;27;20043;-82
2023/06/05 06:10:55;;;;;;;6.85;3.90;;;13.60;99.90;;;;;;5130951;27;20051;-82
2023/06/05 06:13:21;;;;;;;5.25;3.50;;;13.60;99.90;;;;;;5135869;27;20076;-83
2023/06/05 06:15:49;;;;;;;6.68;3.78;;;13.80;99.90;;;;;;5146465;27;20032;-82
2023/06/05 06:18:15;;;;;;;4.63;3.35;;;14.10;99.90;;;;;;5118810;27;20375;-82
2023/06/05 06:20:41;;;;;;;5.97;3.97;;;14.10;99.90;;;;;;5108206;27;20037;-83
2023/06/05 06:23:06;;;;;;;4.15;3.50;;;13.80;99.90;;;;;;5104054;27;20108;-82
2023/06/05 06:25:32;;;;;;;4.70;3.72;;;13.90;99.90;;;;;;5128175;27;20076;-82
2023/06/05 06:28:01;;;;;;;5.47;3.70;;;13.80;99.90;;;;;;5094933;27;20026;-81
2023/06/05 06:30:29;;;;;;;5.00;3.22;;;13.90;99.90;;;;;;5092624;27;20046;-83
2023/06/05 06:32:58;;;;;;;5.03;3.50;;;13.90;99.90;;;;;;5115198;27;20112;-82
2023/06/05 06:35:27;;;;;;;4.38;3.45;;;13.60;99.90;;;;;;5111973;27;20035;-83
2023/06/05 06:37:56;;;;;;;5.65;3.72;;;13.60;99.90;;;;;;5089899;27;20130;-83
2023/06/05 06:40:22;;;;;;;5.05;3.55;;;13.50;99.90;;;;;;5141131;27;20340;-83
2023/06/05 06:42:48;;;;;;;5.00;3.53;;;13.60;99.90;;;;;;5094045;27;20331;-82
2023/06/05 06:45:14;;;;;;;5.15;3.45;;;13.80;99.90;;;;;;5125570;27;20027;-83
2023/06/05 06:47:41;;;;;;;4.82;3.50;;;13.70;99.90;;;;;;5094176;27;20042;-83
2023/06/05 06:50:07;;;;;;;4.00;3.33;;;14.10;99.90;;;;;;5087985;27;20062;-82
2023/06/05 06:52:33;;;;;;;5.10;3.42;;;14.50;99.90;;;;;;5108394;27;20050;-83
2023/06/05 06:55:01;;;;;;;4.68;3.42;;;14.30;99.90;;;;;;5129999;27;20035;-82
2023/06/05 06:57:29;;;;;;;7.95;3.97;;;14.40;99.90;;;;;;5102558;27;20916;-82
2023/06/05 06:59:55;;;;;;;5.13;3.42;;;14.10;99.90;;;;;;5105393;27;20042;-82
2023/06/05 07:02:24;;;;;;;6.40;3.55;;;14.00;99.90;;;;;;5115563;27;20179;-84
2023/06/05 07:04:49;;;;;;;4.75;3.28;;;13.90;99.90;;;;;;5087801;27;20035;-83
2023/06/05 07:07:17;;;;;;;5.10;3.40;;;14.00;99.90;;;;;;5134909;27;20444;-83
2023/06/05 07:09:45;;;;;;;7.53;3.42;;;14.30;99.90;;;;;;5086505;27;20057;-83
2023/06/05 07:12:13;;;;;;;5.30;3.28;;;14.60;99.90;;;;;;5087694;27;20046;-83
2023/06/05 07:14:39;;;;;;;5.22;3.22;;;14.90;99.90;;;;;;5103539;27;20058;-83
2023/06/05 07:17:09;;;;;;;5.18;2.92;;;15.20;99.90;;;;;;5122902;27;20595;-83
2023/06/05 07:19:38;;;;;;;6.13;3.10;;;15.10;99.90;;;;;;5120153;27;20509;-83
2023/06/05 07:22:05;;;;;;;3.42;2.83;;;15.20;99.90;;;;;;5129359;27;20042;-83
2023/06/05 07:24:38;;;;;;;4.35;3.10;;;15.70;99.90;;;;;;5128534;27;20039;-84
2023/06/05 07:27:05;;;;;;;5.35;3.10;;;15.60;99.90;;;;;;5110283;27;20057;-84
2023/06/05 07:29:31;;;;;;;4.32;2.67;;;15.70;99.90;;;;;;5123954;27;20039;-83
2023/06/05 07:31:58;;;;;;;4.38;3.10;;;15.70;99.90;;;;;;5135994;27;20070;-83
2023/06/05 07:34:25;;;;;;;3.78;2.38;;;15.10;99.90;;;;;;5086908;27;20046;-83
2023/06/05 07:36:56;;;;;;;3.25;2.50;;;15.60;99.90;;;;;;5088691;27;20091;-84
2023/06/05 07:39:22;;;;;;;5.53;2.67;;;15.60;99.90;;;;;;5087603;27;20492;-83
2023/06/05 07:41:48;;;;;;;3.92;2.75;;;15.60;99.90;;;;;;5110258;27;20049;-83
2023/06/05 07:44:22;;;;;;;5.10;2.92;;;14.90;99.90;;;;;;5089340;27;20039;-83
2023/06/05 07:46:51;;;;;;;8.20;3.20;;;15.20;99.90;;;;;;5122048;27;20043;-83
2023/06/05 07:49:18;;;;;;;6.80;2.70;;;15.60;99.90;;;;;;5101933;27;20194;-83
2023/06/05 07:51:46;;;;;;;6.28;3.00;;;16.10;99.90;;;;;;5133821;27;20164;-83
2023/06/05 07:54:13;;;;;;;3.58;2.97;;;16.70;99.90;;;;;;5085840;27;20537;-84
2023/06/05 07:56:39;;;;;;;5.25;2.53;;;16.60;99.90;;;;;;5086107;27;20038;-83
2023/06/05 07:59:07;;;;;;;3.85;2.97;;;16.50;99.90;;;;;;5086583;27;20172;-84
2023/06/05 08:01:37;;;;;;;4.65;2.83;;;15.60;99.90;;;;;;5104422;27;20105;-83
2023/06/05 08:04:04;;;;;;;3.72;2.60;;;15.90;99.90;;;;;;5087126;27;20099;-86
2023/06/05 08:06:31;;;;;;;6.60;2.97;;;15.70;99.90;;;;;;5116342;27;20031;-83
2023/06/05 08:08:59;;;;;;;4.63;3.08;;;15.90;99.90;;;;;;5106718;27;20070;-83
2023/06/05 08:11:25;;;;;;;3.35;2.88;;;15.50;99.90;;;;;;5107776;27;20034;-82
2023/06/05 08:13:50;;;;;;;6.65;3.30;;;15.30;99.90;;;;;;5119856;27;20418;-83
2023/06/05 08:16:16;;;;;;;3.90;3.10;;;15.70;99.90;;;;;;5088861;27;20272;-83
2023/06/05 08:18:45;;;;;;;5.15;3.38;;;15.20;99.90;;;;;;5133805;27;20126;-84
2023/06/05 08:21:12;;;;;;;5.22;3.22;;;15.10;99.90;;;;;;5107383;27;20462;-85
2023/06/05 08:23:38;;;;;;;3.38;3.05;;;15.50;99.90;;;;;;5088789;27;20043;-84
2023/06/05 08:26:10;;;;;;;5.30;3.35;;;16.10;99.90;;;;;;5116269;27;20448;-84
2023/06/05 08:28:40;;;;;;;4.75;3.08;;;16.00;99.90;;;;;;5088375;27;20054;-84
2023/06/05 08:31:10;;;;;;;3.47;2.75;;;16.00;99.90;;;;;;5121023;27;20068;-84
2023/06/05 08:33:36;;;;;;;4.55;2.92;;;16.50;99.90;;;;;;5085604;27;20032;-84
2023/06/05 08:36:04;;;;;;;3.88;2.55;;;16.70;99.90;;;;;;5091329;27;20078;-84
2023/06/05 08:38:30;;;;;;;4.93;3.05;;;16.50;99.90;;;;;;5097817;27;20065;-84
2023/06/05 08:41:00;;;;;;;4.85;3.03;;;16.50;99.90;;;;;;5103678;27;20046;-84
2023/06/05 08:43:26;;;;;;;3.97;3.25;;;16.50;99.90;;;;;;5118435;27;20035;-85
2023/06/05 08:45:55;;;;;;;3.83;2.70;;;16.60;99.90;;;;;;5101965;27;20330;-85
2023/06/05 08:48:24;;;;;;;4.45;3.00;;;17.10;99.90;;;;;;5075835;27;20122;-84
2023/06/05 08:50:51;;;;;;;4.78;3.03;;;17.10;99.90;;;;;;5083630;27;20103;-84
2023/06/05 08:53:18;;;;;;;3.75;3.15;;;17.40;99.90;;;;;;5122571;27;20385;-85
2023/06/05 08:55:50;;;;;;;3.45;2.80;;;17.10;99.90;;;;;;5107829;27;20035;-85
2023/06/05 08:58:16;;;;;;;3.55;2.80;;;16.70;99.90;;;;;;5085070;27;20514;-84
2023/06/05 09:00:42;;;;;;;5.32;3.10;;;17.40;99.90;;;;;;5126031;27;20050;-84
2023/06/05 09:03:13;;;;;;;4.38;3.17;;;17.40;99.90;;;;;;5114999;27;20447;-84
2023/06/05 09:05:39;;;;;;;4.70;3.35;;;17.10;99.90;;;;;;5111700;27;20054;-84
2023/06/05 09:08:05;;;;;;;4.18;3.20;;;16.90;99.90;;;;;;5117118;27;20035;-84
2023/06/05 09:10:30;;;;;;;6.63;3.40;;;16.90;99.90;;;;;;5084880;28;20068;-84
2023/06/05 09:13:01;;;;;;;5.65;3.40;;;17.10;99.90;;;;;;5142801;27;20034;-84
2023/06/05 09:15:33;;;;;;;9.07;3.55;;;17.40;99.90;;;;;;5089658;27;20435;-84
2023/06/05 09:18:15;;;;;;;5.07;3.53;;;17.80;99.90;;;;;;5085994;28;20150;-83
2023/06/05 09:20:45;;;;;;;6.13;3.60;;;17.70;99.90;;;;;;5102742;27;20062;-84
2023/06/05 09:23:28;;;;;;;4.38;3.20;;;17.60;93.60;;;;;;5076235;27;20137;-84
2023/06/05 09:25:57;;;;;;;4.57;3.40;;;18.20;99.90;;;;;;5106842;28;20146;-84
2023/06/05 09:28:22;;;;;;;7.05;3.50;;;17.60;99.90;;;;;;5084882;27;20114;-84
2023/06/05 09:30:56;;;;;;;4.22;3.40;;;17.80;99.90;;;;;;5087120;27;20125;-85
2023/06/05 09:33:26;;;;;;;5.65;3.28;;;18.20;99.90;;;;;;5088748;28;20521;-84
2023/06/05 09:36:12;;;;;;;6.72;3.47;;;18.50;99.90;;;;;;5080103;27;20070;-85
2023/06/05 09:38:41;;;;;;;5.70;3.60;;;18.00;99.90;;;;;;5104444;27;20351;-84
2023/06/05 09:41:07;;;;;;;5.88;3.75;;;17.70;99.90;;;;;;5087837;27;20481;-84
2023/06/05 09:43:33;;;;;;;7.05;4.13;;;17.60;1.00;;;;;;5086570;27;20122;-84
2023/06/05 09:46:05;;;;;;;4.90;3.63;;;17.60;99.90;;;;;;5122977;27;20424;-84
2023/06/05 09:48:34;;;;;;;4.72;3.35;;;18.10;72.30;;;;;;5092467;28;20162;-84
2023/06/05 09:51:14;;;;;;;5.10;3.40;;;18.30;48.10;;;;;;5105062;27;20590;-84
2023/06/05 09:53:45;;;;;;;5.18;3.80;;;18.50;99.90;;;;;;5101353;27;20104;-84
2023/06/05 09:56:16;;;;;;;6.18;3.58;;;18.30;99.90;;;;;;5108609;27;20034;-85
2023/06/05 09:58:47;;;;;;;5.95;3.65;;;18.60;99.90;;;;;;5108765;27;20121;-84
2023/06/05 10:01:22;;;;;;;5.38;3.70;;;18.70;99.90;;;;;;5124955;27;20122;-84
2023/06/05 10:04:06;;;;;;;4.72;3.70;;;18.50;52.70;;;;;;5137155;27;20035;-85
2023/06/05 10:06:33;;;;;;;5.68;3.80;;;19.00;99.90;;;;;;5105560;27;20525;-83
2023/06/05 10:09:00;;;;;;;4.70;3.70;;;19.20;1.00;;;;;;5104312;27;20238;-84
2023/06/05 10:11:26;;;;;;;4.80;3.60;;;18.70;1.00;;;;;;5107532;27;20050;-85
2023/06/05 10:13:59;;;;;;;4.63;3.42;;;18.30;99.90;;;;;;5081661;27;20265;-85
2023/06/05 10:16:30;;;;;;;4.82;3.58;;;18.70;99.90;;;;;;5108085;27;20038;-85
2023/06/05 10:18:57;;;;;;;5.00;3.47;;;19.30;45.10;;;;;;5135884;27;20093;-84
2023/06/05 10:21:24;;;;;;;5.35;3.45;;;19.30;13.90;;;;;;5105754;27;20085;-84
2023/06/05 10:23:55;;;;;;;4.85;3.63;;;19.90;99.90;;;;;;5137936;27;20039;-85
2023/06/05 10:26:58;;;;;;;4.15;3.42;;;19.60;32.50;;;;;;5102346;27;20035;-85
2023/06/05 10:29:53;;;;;;;6.28;3.78;;;20.00;99.90;;;;;;5111548;27;20046;-84
2023/06/05 10:32:28;;;;;;;4.10;3.03;;;18.90;1.00;;;;;;5076770;27;20470;-84
2023/06/05 10:35:08;;;;;;;;;;;19.10;99.90;;;;;;5089664;27;20038;-84
2023/06/05 10:38:01;;;;;;;4.32;3.53;;;19.70;1.00;;;;;;5112163;27;19915;-85
2023/06/05 10:40:27;;;;;;;5.75;4.05;;;19.00;1.00;;;;;;5101783;27;20066;-84
2023/06/05 10:42:53;;;;;;;5.45;3.50;;;19.20;99.90;;;;;;5122297;27;20047;-84
2023/06/05 10:45:31;;;;;;;4.55;3.35;;;18.80;99.90;;;;;;5082976;27;20035;-84
2023/06/05 10:47:56;;;;;;;4.90;3.25;;;18.80;99.90;;;;;;5119816;27;20043;-84
2023/06/05 10:50:25;;;;;;;4.40;3.40;;;19.10;25.90;;;;;;5088685;27;20050;-86
2023/06/05 10:52:52;;;;;;;5.80;3.63;;;19.40;99.90;;;;;;5105198;27;20039;-85
2023/06/05 10:55:20;;;;;;;6.25;3.40;;;19.40;99.90;;;;;;5134161;27;20035;-84
2023/06/05 10:58:01;;;;;;;3.83;2.90;;;20.20;1.00;;;;;;5083637;27;20489;-85
2023/06/05 11:00:31;;;;;;;5.97;3.40;;;20.80;4.40;;;;;;5134279;27;20125;-85
2023/06/05 11:02:57;;;;;;;4.00;3.22;;;19.90;99.90;;;;;;5109155;27;20482;-84
2023/06/05 11:05:25;;;;;;;3.75;3.00;;;19.20;40.80;;;;;;5109913;27;20441;-85
2023/06/05 11:08:10;;;;;;;4.28;2.72;;;19.80;1.00;;;;;;5085229;27;20054;-84
2023/06/05 11:10:36;;;;;;;5.30;3.37;;;19.80;67.70;;;;;;5079652;27;20047;-85
2023/06/05 11:13:02;;;;;;;4.15;3.00;;;20.10;99.90;;;;;;5106042;27;20644;-84
2023/06/05 11:15:36;;;;;;;3.70;2.83;;;20.80;99.90;;;;;;5120007;27;20043;-84
2023/06/05 11:18:29;;;;;;;3.07;2.70;;;21.00;1.00;;;;;;5121132;27;20035;-84
2023/06/05 11:20:56;;;;;;;5.75;3.15;;;20.10;1.00;;;;;;5103117;27;20304;-84
2023/06/05 11:23:27;;;;;;;3.88;2.90;;;19.90;94.60;;;;;;5083547;27;20028;-84
2023/06/05 11:25:53;;;;;;;3.78;3.00;;;19.50;99.90;;;;;;5114345;27;20465;-84
2023/06/05 11:28:41;;;;;;;4.30;3.00;;;20.10;99.90;;;;;;5104610;27;20570;-84
2023/06/05 11:31:07;;;;;;;4.25;2.58;;;20.60;1.00;;;;;;5109492;27;20039;-85
2023/06/05 11:33:34;;;;;;;3.63;3.05;;;21.10;17.60;;;;;;5095198;27;20035;-85
2023/06/05 11:36:03;;;;;;;3.50;2.95;;;20.90;1.00;;;;;;5082997;27;20133;-85
2023/06/05 11:38:29;;;;;;;4.88;2.97;;;20.30;99.90;;;;;;5087053;27;20403;-84
2023/06/05 11:40:55;;;;;;;5.97;2.78;;;20.30;99.90;;;;;;5105285;27;20476;-84
2023/06/05 11:43:21;;;;;;;3.95;2.78;;;20.90;1.00;;;;;;5132526;27;20028;-84
2023/06/05 11:45:57;;;;;;;4.43;2.70;;;20.90;99.90;;;;;;5096197;27;20370;-84
2023/06/05 11:48:24;;;;;;;3.75;2.90;;;21.30;1.00;;;;;;5095032;27;20204;-85
2023/06/05 11:51:05;;;;;;;4.00;2.78;;;21.50;99.90;;;;;;5103922;27;20047;-84
2023/06/05 11:53:32;;;;;;;3.65;2.70;;;22.40;1.00;;;;;;5107011;27;20519;-84
2023/06/05 11:56:07;;;;;;;3.83;2.78;;;22.40;1.00;;;;;;5127316;27;20070;-84
2023/06/05 11:58:35;;;;;;;3.60;3.00;;;21.50;1.00;;;;;;5106485;27;20066;-84
2023/06/05 12:01:31;;;;;;;4.32;2.80;;;22.60;99.90;;;;;;5110093;27;20501;-85
2023/06/05 12:04:07;;;;;;;2.80;2.50;;;21.60;99.90;;;;;;5105513;27;20103;-86
2023/06/05 12:06:43;;;;;;;4.13;2.53;;;22.70;97.30;;;;;;5106748;27;20076;-83
2023/06/05 12:09:14;;;;;;;4.07;2.40;;;21.90;28.70;;;;;;5098558;27;20047;-85
2023/06/05 12:11:41;;;;;;;3.90;3.10;;;21.20;99.90;;;;;;5122700;27;20098;-84
2023/06/05 12:14:07;;;;;;;4.85;3.05;;;20.70;1.00;;;;;;5102109;27;20048;-85
2023/06/05 12:16:35;;;;;;;4.35;2.60;;;20.50;99.90;;;;;;5103674;27;20042;-84
2023/06/05 12:19:21;;;;;;;5.05;3.42;;;20.50;1.00;;;;;;5094957;27;20081;-84
2023/06/05 12:21:50;;;;;;;4.72;3.22;;;21.80;38.20;;;;;;5103722;27;20146;-84
2023/06/05 12:24:28;;;;;;;3.78;2.70;;;21.70;66.50;;;;;;5097650;27;20035;-84
2023/06/05 12:26:58;;;;;;;3.72;2.90;;;21.50;99.90;;;;;;5102828;27;20039;-85
2023/06/05 12:29:29;;;;;;;3.40;2.72;;;20.50;99.90;;;;;;5105264;27;20749;-84
2023/06/05 12:31:56;;;;;;;4.28;2.83;;;20.40;7.70;;;;;;5083617;27;20054;-85
2023/06/05 12:34:51;;;;;;;6.47;3.30;;;20.80;99.90;;;;;;5096237;27;20054;-85
2023/06/05 12:37:37;;;;;;;5.27;3.27;;;20.80;99.90;;;;;;5092300;27;20153;-84
2023/06/05 12:40:10;;;;;;;4.10;2.80;;;21.80;1.00;;;;;;5095509;27;20064;-84
2023/06/05 12:42:38;;;;;;;5.78;2.97;;;21.70;1.00;;;;;;5078786;27;20516;-85
2023/06/05 12:45:06;;;;;;;4.05;2.95;;;21.60;1.00;;;;;;5123397;27;20068;-85
2023/06/05 12:47:32;;;;;;;3.38;2.80;;;21.00;1.00;;;;;;5089648;27;20522;-84
2023/06/05 12:49:58;;;;;;;4.63;2.92;;;21.50;1.00;;;;;;5097534;27;20042;-84
2023/06/05 12:52:27;;;;;;;4.25;2.72;;;21.90;99.90;;;;;;5096518;27;20050;-84